Terminal Aerodrome Forecast
Issued by NWS

Home | Current Version | Previous Version | Text Only | Print | Product List | Glossary On
Versions: 1 2 3 4 5 6 7 8 9 10 11 12 13 14 15 16 17
000
FTUS45 KLKN 230542
TAFTPH
TAF
KTPH 230542Z 2306/2406 33015G25KT P6SM SCT070
     FM240300 34011KT P6SM FEW070=

USA.gov is the U.S. government's official web portal to all federal, state and local government web resources and services.